sensor_id;sensor_type;location;lat;lon;timestamp;P1;durP1;ratioP1;P2;durP2;ratioP2
21860;SDS011;11095;48.066;8.540;2023-03-09T00:02:08;1.55;;;0.70;;
21860;SDS011;11095;48.066;8.540;2023-03-09T00:04:38;2.63;;;0.80;;
21860;SDS011;11095;48.066;8.540;2023-03-09T00:07:03;1.20;;;0.70;;
21860;SDS011;11095;48.066;8.540;2023-03-09T00:09:29;1.95;;;0.77;;
21860;SDS011;11095;48.066;8.540;2023-03-09T00:11:55;1.50;;;0.80;;
21860;SDS011;11095;48.066;8.540;2023-03-09T00:14:20;1.50;;;0.80;;
21860;SDS011;11095;48.066;8.540;2023-03-09T00:16:47;1.85;;;0.80;;
21860;SDS011;11095;48.066;8.540;2023-03-09T00:19:13;1.42;;;0.80;;
21860;SDS011;11095;48.066;8.540;2023-03-09T00:21:45;1.00;;;0.60;;
21860;SDS011;11095;48.066;8.540;2023-03-09T00:24:17;2.53;;;0.77;;
21860;SDS011;11095;48.066;8.540;2023-03-09T00:26:48;1.55;;;0.60;;
21860;SDS011;11095;48.066;8.540;2023-03-09T00:29:15;0.73;;;0.60;;
21860;SDS011;11095;48.066;8.540;2023-03-09T00:31:42;3.03;;;0.60;;
21860;SDS011;11095;48.066;8.540;2023-03-09T00:34:08;1.90;;;0.50;;
21860;SDS011;11095;48.066;8.540;2023-03-09T00:36:34;0.98;;;0.43;;
21860;SDS011;11095;48.066;8.540;2023-03-09T00:39:01;1.20;;;0.50;;
21860;SDS011;11095;48.066;8.540;2023-03-09T00:41:27;0.95;;;0.65;;
21860;SDS011;11095;48.066;8.540;2023-03-09T00:43:55;1.63;;;0.85;;
21860;SDS011;11095;48.066;8.540;2023-03-09T00:46:22;1.58;;;0.70;;
21860;SDS011;11095;48.066;8.540;2023-03-09T00:48:47;0.75;;;0.70;;
21860;SDS011;11095;48.066;8.540;2023-03-09T00:51:13;1.50;;;0.68;;
21860;SDS011;11095;48.066;8.540;2023-03-09T00:53:39;2.25;;;0.70;;
21860;SDS011;11095;48.066;8.540;2023-03-09T00:56:06;2.47;;;0.88;;
21860;SDS011;11095;48.066;8.540;2023-03-09T00:58:34;3.05;;;1.08;;
21860;SDS011;11095;48.066;8.540;2023-03-09T01:01:00;2.38;;;0.98;;
21860;SDS011;11095;48.066;8.540;2023-03-09T01:03:25;2.35;;;0.90;;
21860;SDS011;11095;48.066;8.540;2023-03-09T01:05:52;2.58;;;1.02;;
21860;SDS011;11095;48.066;8.540;2023-03-09T01:08:18;3.33;;;1.08;;
21860;SDS011;11095;48.066;8.540;2023-03-09T01:10:43;4.57;;;1.27;;
21860;SDS011;11095;48.066;8.540;2023-03-09T01:13:10;2.22;;;0.93;;
21860;SDS011;11095;48.066;8.540;2023-03-09T01:15:36;3.58;;;1.00;;
21860;SDS011;11095;48.066;8.540;2023-03-09T01:18:02;2.97;;;1.00;;
21860;SDS011;11095;48.066;8.540;2023-03-09T01:20:28;5.03;;;1.10;;
21860;SDS011;11095;48.066;8.540;2023-03-09T01:22:54;4.15;;;1.17;;
21860;SDS011;11095;48.066;8.540;2023-03-09T01:25:20;1.38;;;0.80;;
21860;SDS011;11095;48.066;8.540;2023-03-09T01:27:48;3.72;;;0.98;;
21860;SDS011;11095;48.066;8.540;2023-03-09T01:30:14;4.22;;;1.10;;
21860;SDS011;11095;48.066;8.540;2023-03-09T01:32:40;3.30;;;1.10;;
21860;SDS011;11095;48.066;8.540;2023-03-09T01:35:05;4.50;;;1.20;;
21860;SDS011;11095;48.066;8.540;2023-03-09T01:37:31;3.05;;;0.98;;
21860;SDS011;11095;48.066;8.540;2023-03-09T01:39:57;2.67;;;0.80;;
21860;SDS011;11095;48.066;8.540;2023-03-09T01:42:23;4.22;;;1.13;;
21860;SDS011;11095;48.066;8.540;2023-03-09T01:47:50;3.92;;;1.00;;
21860;SDS011;11095;48.066;8.540;2023-03-09T01:50:21;2.17;;;0.75;;
21860;SDS011;11095;48.066;8.540;2023-03-09T01:52:56;3.20;;;0.93;;
21860;SDS011;11095;48.066;8.540;2023-03-09T01:55:29;3.90;;;0.80;;
21860;SDS011;11095;48.066;8.540;2023-03-09T01:57:59;2.42;;;1.08;;
21860;SDS011;11095;48.066;8.540;2023-03-09T02:00:32;2.05;;;1.05;;
21860;SDS011;11095;48.066;8.540;2023-03-09T02:08:36;5.05;;;1.10;;
21860;SDS011;11095;48.066;8.540;2023-03-09T02:11:24;1.83;;;0.77;;
21860;SDS011;11095;48.066;8.540;2023-03-09T02:13:50;2.95;;;1.05;;
21860;SDS011;11095;48.066;8.540;2023-03-09T02:16:18;2.15;;;0.88;;
21860;SDS011;11095;48.066;8.540;2023-03-09T02:18:44;3.45;;;1.00;;
21860;SDS011;11095;48.066;8.540;2023-03-09T02:26:36;3.05;;;1.20;;
21860;SDS011;11095;48.066;8.540;2023-03-09T02:29:11;1.92;;;0.77;;
21860;SDS011;11095;48.066;8.540;2023-03-09T02:31:37;4.00;;;1.30;;
21860;SDS011;11095;48.066;8.540;2023-03-09T02:34:03;2.95;;;1.10;;
21860;SDS011;11095;48.066;8.540;2023-03-09T02:36:29;4.00;;;1.10;;
21860;SDS011;11095;48.066;8.540;2023-03-09T02:38:55;4.57;;;1.17;;
21860;SDS011;11095;48.066;8.540;2023-03-09T02:41:45;5.45;;;1.17;;
21860;SDS011;11095;48.066;8.540;2023-03-09T02:44:13;6.25;;;1.13;;
21860;SDS011;11095;48.066;8.540;2023-03-09T02:46:39;3.80;;;1.23;;
21860;SDS011;11095;48.066;8.540;2023-03-09T02:49:05;2.97;;;1.10;;
21860;SDS011;11095;48.066;8.540;2023-03-09T02:51:31;6.13;;;1.50;;
21860;SDS011;11095;48.066;8.540;2023-03-09T02:53:59;3.85;;;1.10;;
21860;SDS011;11095;48.066;8.540;2023-03-09T02:56:24;3.47;;;0.90;;
21860;SDS011;11095;48.066;8.540;2023-03-09T02:58:50;3.28;;;0.90;;
21860;SDS011;11095;48.066;8.540;2023-03-09T03:01:16;2.55;;;0.80;;
21860;SDS011;11095;48.066;8.540;2023-03-09T03:03:42;2.83;;;0.90;;
21860;SDS011;11095;48.066;8.540;2023-03-09T03:06:07;1.25;;;0.60;;
21860;SDS011;11095;48.066;8.540;2023-03-09T03:08:33;0.60;;;0.40;;
21860;SDS011;11095;48.066;8.540;2023-03-09T03:11:00;0.55;;;0.30;;
21860;SDS011;11095;48.066;8.540;2023-03-09T03:13:26;2.55;;;0.40;;
21860;SDS011;11095;48.066;8.540;2023-03-09T03:15:57;0.40;;;0.20;;
21860;SDS011;11095;48.066;8.540;2023-03-09T03:18:26;0.82;;;0.43;;
21860;SDS011;11095;48.066;8.540;2023-03-09T03:20:51;0.30;;;0.30;;
21860;SDS011;11095;48.066;8.540;2023-03-09T03:23:17;0.35;;;0.28;;
21860;SDS011;11095;48.066;8.540;2023-03-09T03:25:43;0.63;;;0.28;;
21860;SDS011;11095;48.066;8.540;2023-03-09T03:28:08;0.30;;;0.30;;
21860;SDS011;11095;48.066;8.540;2023-03-09T03:30:34;0.93;;;0.30;;
21860;SDS011;11095;48.066;8.540;2023-03-09T03:33:00;0.40;;;0.40;;
21860;SDS011;11095;48.066;8.540;2023-03-09T03:35:25;0.35;;;0.30;;
21860;SDS011;11095;48.066;8.540;2023-03-09T03:37:51;0.40;;;0.30;;
21860;SDS011;11095;48.066;8.540;2023-03-09T03:40:17;0.73;;;0.40;;
21860;SDS011;11095;48.066;8.540;2023-03-09T03:42:45;0.95;;;0.35;;
21860;SDS011;11095;48.066;8.540;2023-03-09T03:45:11;0.63;;;0.32;;
21860;SDS011;11095;48.066;8.540;2023-03-09T03:47:37;0.30;;;0.30;;
21860;SDS011;11095;48.066;8.540;2023-03-09T03:50:05;0.30;;;0.20;;
21860;SDS011;11095;48.066;8.540;2023-03-09T03:52:32;0.80;;;0.30;;
21860;SDS011;11095;48.066;8.540;2023-03-09T03:54:57;0.30;;;0.30;;
21860;SDS011;11095;48.066;8.540;2023-03-09T03:57:23;1.17;;;0.45;;
21860;SDS011;11095;48.066;8.540;2023-03-09T03:59:51;0.38;;;0.30;;
21860;SDS011;11095;48.066;8.540;2023-03-09T04:02:17;1.40;;;0.40;;
21860;SDS011;11095;48.066;8.540;2023-03-09T04:04:43;1.33;;;0.40;;
21860;SDS011;11095;48.066;8.540;2023-03-09T04:07:08;1.27;;;0.40;;
21860;SDS011;11095;48.066;8.540;2023-03-09T04:09:34;0.45;;;0.45;;
21860;SDS011;11095;48.066;8.540;2023-03-09T04:12:03;1.38;;;0.40;;
21860;SDS011;11095;48.066;8.540;2023-03-09T04:14:32;1.13;;;0.40;;
21860;SDS011;11095;48.066;8.540;2023-03-09T04:17:02;0.35;;;0.30;;
21860;SDS011;11095;48.066;8.540;2023-03-09T04:19:27;0.40;;;0.30;;
21860;SDS011;11095;48.066;8.540;2023-03-09T04:21:53;0.40;;;0.30;;
21860;SDS011;11095;48.066;8.540;2023-03-09T04:24:19;0.80;;;0.38;;
21860;SDS011;11095;48.066;8.540;2023-03-09T04:26:44;1.08;;;0.30;;
21860;SDS011;11095;48.066;8.540;2023-03-09T04:29:10;1.02;;;0.40;;
21860;SDS011;11095;48.066;8.540;2023-03-09T04:31:35;0.35;;;0.35;;
21860;SDS011;11095;48.066;8.540;2023-03-09T04:34:01;0.52;;;0.45;;
21860;SDS011;11095;48.066;8.540;2023-03-09T04:36:27;0.63;;;0.43;;
21860;SDS011;11095;48.066;8.540;2023-03-09T04:38:53;0.82;;;0.50;;
21860;SDS011;11095;48.066;8.540;2023-03-09T04:41:18;2.38;;;0.60;;
21860;SDS011;11095;48.066;8.540;2023-03-09T04:43:44;2.38;;;0.57;;
21860;SDS011;11095;48.066;8.540;2023-03-09T04:46:12;1.27;;;0.50;;
21860;SDS011;11095;48.066;8.540;2023-03-09T04:48:39;1.13;;;0.60;;
21860;SDS011;11095;48.066;8.540;2023-03-09T04:51:05;1.58;;;0.60;;
21860;SDS011;11095;48.066;8.540;2023-03-09T04:53:34;2.33;;;0.63;;
21860;SDS011;11095;48.066;8.540;2023-03-09T04:56:00;2.90;;;0.63;;
21860;SDS011;11095;48.066;8.540;2023-03-09T04:58:26;3.50;;;0.70;;
21860;SDS011;11095;48.066;8.540;2023-03-09T05:00:52;2.17;;;0.77;;
21860;SDS011;11095;48.066;8.540;2023-03-09T05:03:18;2.63;;;0.75;;
21860;SDS011;11095;48.066;8.540;2023-03-09T05:05:43;4.22;;;0.80;;
21860;SDS011;11095;48.066;8.540;2023-03-09T05:08:09;2.15;;;0.70;;
21860;SDS011;11095;48.066;8.540;2023-03-09T05:10:35;2.50;;;0.70;;
21860;SDS011;11095;48.066;8.540;2023-03-09T05:13:01;2.70;;;0.93;;
21860;SDS011;11095;48.066;8.540;2023-03-09T05:15:27;2.42;;;0.90;;
21860;SDS011;11095;48.066;8.540;2023-03-09T05:17:52;2.10;;;0.80;;
21860;SDS011;11095;48.066;8.540;2023-03-09T05:20:18;3.17;;;0.82;;
21860;SDS011;11095;48.066;8.540;2023-03-09T05:25:14;4.07;;;0.85;;
21860;SDS011;11095;48.066;8.540;2023-03-09T05:27:47;2.22;;;0.80;;
21860;SDS011;11095;48.066;8.540;2023-03-09T05:30:13;2.78;;;0.82;;
21860;SDS011;11095;48.066;8.540;2023-03-09T05:32:39;4.03;;;1.08;;
21860;SDS011;11095;48.066;8.540;2023-03-09T05:35:07;3.92;;;0.90;;
21860;SDS011;11095;48.066;8.540;2023-03-09T05:37:33;3.97;;;0.90;;
21860;SDS011;11095;48.066;8.540;2023-03-09T05:39:59;4.20;;;1.05;;
21860;SDS011;11095;48.066;8.540;2023-03-09T05:42:25;3.15;;;1.10;;
21860;SDS011;11095;48.066;8.540;2023-03-09T05:44:51;3.75;;;0.98;;
21860;SDS011;11095;48.066;8.540;2023-03-09T05:47:16;5.85;;;1.05;;
21860;SDS011;11095;48.066;8.540;2023-03-09T05:49:42;4.53;;;1.40;;
21860;SDS011;11095;48.066;8.540;2023-03-09T05:52:08;3.17;;;1.20;;
21860;SDS011;11095;48.066;8.540;2023-03-09T05:54:34;4.38;;;1.17;;
21860;SDS011;11095;48.066;8.540;2023-03-09T05:57:00;6.10;;;1.38;;
21860;SDS011;11095;48.066;8.540;2023-03-09T05:59:25;4.03;;;1.00;;
21860;SDS011;11095;48.066;8.540;2023-03-09T06:01:51;6.80;;;1.40;;
21860;SDS011;11095;48.066;8.540;2023-03-09T06:04:17;3.67;;;1.10;;
21860;SDS011;11095;48.066;8.540;2023-03-09T06:06:42;5.13;;;1.30;;
21860;SDS011;11095;48.066;8.540;2023-03-09T06:09:08;5.28;;;1.23;;
21860;SDS011;11095;48.066;8.540;2023-03-09T06:11:34;3.88;;;1.20;;
21860;SDS011;11095;48.066;8.540;2023-03-09T06:14:00;6.55;;;1.30;;
21860;SDS011;11095;48.066;8.540;2023-03-09T06:16:25;6.07;;;1.70;;
21860;SDS011;11095;48.066;8.540;2023-03-09T06:18:53;3.67;;;1.02;;
21860;SDS011;11095;48.066;8.540;2023-03-09T06:21:20;5.10;;;1.20;;
21860;SDS011;11095;48.066;8.540;2023-03-09T06:23:45;3.92;;;1.20;;
21860;SDS011;11095;48.066;8.540;2023-03-09T06:26:11;5.90;;;1.48;;
21860;SDS011;11095;48.066;8.540;2023-03-09T06:28:38;7.47;;;2.38;;
21860;SDS011;11095;48.066;8.540;2023-03-09T06:31:08;4.15;;;1.90;;
21860;SDS011;11095;48.066;8.540;2023-03-09T06:33:38;3.63;;;1.40;;
21860;SDS011;11095;48.066;8.540;2023-03-09T06:36:08;3.42;;;1.10;;
21860;SDS011;11095;48.066;8.540;2023-03-09T06:38:35;6.63;;;1.40;;
21860;SDS011;11095;48.066;8.540;2023-03-09T06:41:00;3.53;;;0.95;;
21860;SDS011;11095;48.066;8.540;2023-03-09T06:43:26;3.10;;;1.20;;
21860;SDS011;11095;48.066;8.540;2023-03-09T06:45:52;5.20;;;1.15;;
21860;SDS011;11095;48.066;8.540;2023-03-09T06:48:18;3.92;;;0.80;;
21860;SDS011;11095;48.066;8.540;2023-03-09T06:50:44;3.15;;;1.20;;
21860;SDS011;11095;48.066;8.540;2023-03-09T06:53:10;3.15;;;1.30;;
21860;SDS011;11095;48.066;8.540;2023-03-09T06:55:37;3.45;;;1.20;;
21860;SDS011;11095;48.066;8.540;2023-03-09T06:58:04;6.00;;;2.05;;
21860;SDS011;11095;48.066;8.540;2023-03-09T07:00:30;4.40;;;1.77;;
21860;SDS011;11095;48.066;8.540;2023-03-09T07:02:55;4.28;;;1.80;;
21860;SDS011;11095;48.066;8.540;2023-03-09T07:05:21;4.05;;;1.48;;
21860;SDS011;11095;48.066;8.540;2023-03-09T07:07:47;3.83;;;1.30;;
21860;SDS011;11095;48.066;8.540;2023-03-09T07:10:13;3.92;;;1.42;;
21860;SDS011;11095;48.066;8.540;2023-03-09T07:12:39;3.67;;;1.20;;
21860;SDS011;11095;48.066;8.540;2023-03-09T07:15:05;4.28;;;1.45;;
21860;SDS011;11095;48.066;8.540;2023-03-09T07:17:31;5.05;;;1.42;;
21860;SDS011;11095;48.066;8.540;2023-03-09T07:19:57;5.53;;;1.42;;
21860;SDS011;11095;48.066;8.540;2023-03-09T07:22:23;3.17;;;1.20;;
21860;SDS011;11095;48.066;8.540;2023-03-09T07:24:48;3.95;;;1.30;;
21860;SDS011;11095;48.066;8.540;2023-03-09T07:27:14;3.90;;;1.45;;
21860;SDS011;11095;48.066;8.540;2023-03-09T07:29:40;3.80;;;1.48;;
21860;SDS011;11095;48.066;8.540;2023-03-09T07:32:06;5.50;;;1.80;;
21860;SDS011;11095;48.066;8.540;2023-03-09T07:34:32;5.20;;;1.60;;
21860;SDS011;11095;48.066;8.540;2023-03-09T07:36:59;3.45;;;1.33;;
21860;SDS011;11095;48.066;8.540;2023-03-09T07:39:25;3.78;;;1.25;;
21860;SDS011;11095;48.066;8.540;2023-03-09T07:41:51;3.03;;;1.02;;
21860;SDS011;11095;48.066;8.540;2023-03-09T07:44:17;3.25;;;1.27;;
21860;SDS011;11095;48.066;8.540;2023-03-09T07:46:43;4.68;;;1.50;;
21860;SDS011;11095;48.066;8.540;2023-03-09T07:49:09;3.20;;;1.08;;
21860;SDS011;11095;48.066;8.540;2023-03-09T07:51:35;2.85;;;1.00;;
21860;SDS011;11095;48.066;8.540;2023-03-09T07:54:04;3.33;;;1.13;;
21860;SDS011;11095;48.066;8.540;2023-03-09T07:56:30;3.97;;;1.13;;
21860;SDS011;11095;48.066;8.540;2023-03-09T07:58:56;2.95;;;1.00;;
21860;SDS011;11095;48.066;8.540;2023-03-09T08:01:22;3.28;;;1.00;;
21860;SDS011;11095;48.066;8.540;2023-03-09T08:03:48;2.70;;;1.10;;
21860;SDS011;11095;48.066;8.540;2023-03-09T08:06:14;3.03;;;1.10;;
21860;SDS011;11095;48.066;8.540;2023-03-09T08:08:41;4.78;;;1.27;;
21860;SDS011;11095;48.066;8.540;2023-03-09T08:11:07;4.50;;;1.10;;
21860;SDS011;11095;48.066;8.540;2023-03-09T08:13:33;3.78;;;1.10;;
21860;SDS011;11095;48.066;8.540;2023-03-09T08:16:00;3.67;;;1.10;;
21860;SDS011;11095;48.066;8.540;2023-03-09T08:18:28;2.78;;;1.40;;
21860;SDS011;11095;48.066;8.540;2023-03-09T08:20:54;3.25;;;1.30;;
21860;SDS011;11095;48.066;8.540;2023-03-09T08:23:27;2.67;;;0.95;;
21860;SDS011;11095;48.066;8.540;2023-03-09T08:25:53;3.50;;;1.17;;
21860;SDS011;11095;48.066;8.540;2023-03-09T08:28:19;1.60;;;0.77;;
21860;SDS011;11095;48.066;8.540;2023-03-09T08:30:45;2.47;;;0.95;;
21860;SDS011;11095;48.066;8.540;2023-03-09T08:33:10;2.47;;;0.80;;
21860;SDS011;11095;48.066;8.540;2023-03-09T08:35:36;2.67;;;0.82;;
21860;SDS011;11095;48.066;8.540;2023-03-09T08:38:02;2.45;;;0.57;;
21860;SDS011;11095;48.066;8.540;2023-03-09T08:40:27;1.33;;;0.70;;
21860;SDS011;11095;48.066;8.540;2023-03-09T08:42:53;1.95;;;0.55;;
21860;SDS011;11095;48.066;8.540;2023-03-09T08:45:19;1.17;;;0.45;;
21860;SDS011;11095;48.066;8.540;2023-03-09T08:47:44;1.20;;;0.60;;
21860;SDS011;11095;48.066;8.540;2023-03-09T08:50:11;1.70;;;0.50;;
21860;SDS011;11095;48.066;8.540;2023-03-09T08:52:37;1.30;;;0.40;;
21860;SDS011;11095;48.066;8.540;2023-03-09T08:55:05;1.92;;;0.50;;
21860;SDS011;11095;48.066;8.540;2023-03-09T08:57:32;1.08;;;0.60;;
21860;SDS011;11095;48.066;8.540;2023-03-09T08:59:59;1.17;;;0.60;;
21860;SDS011;11095;48.066;8.540;2023-03-09T09:02:24;1.00;;;0.60;;
21860;SDS011;11095;48.066;8.540;2023-03-09T09:04:50;0.88;;;0.50;;
21860;SDS011;11095;48.066;8.540;2023-03-09T09:07:16;1.77;;;0.52;;
21860;SDS011;11095;48.066;8.540;2023-03-09T09:09:43;2.05;;;0.50;;
21860;SDS011;11095;48.066;8.540;2023-03-09T09:12:09;1.63;;;0.70;;
21860;SDS011;11095;48.066;8.540;2023-03-09T09:14:36;1.25;;;0.50;;
21860;SDS011;11095;48.066;8.540;2023-03-09T09:17:03;1.92;;;0.60;;
21860;SDS011;11095;48.066;8.540;2023-03-09T09:19:32;2.28;;;0.70;;
21860;SDS011;11095;48.066;8.540;2023-03-09T09:21:58;1.95;;;0.75;;
21860;SDS011;11095;48.066;8.540;2023-03-09T09:24:24;2.35;;;0.80;;
21860;SDS011;11095;48.066;8.540;2023-03-09T09:26:53;1.45;;;0.75;;
21860;SDS011;11095;48.066;8.540;2023-03-09T09:29:19;1.83;;;0.80;;
21860;SDS011;11095;48.066;8.540;2023-03-09T09:31:45;2.47;;;0.80;;
21860;SDS011;11095;48.066;8.540;2023-03-09T09:34:13;2.33;;;0.73;;
21860;SDS011;11095;48.066;8.540;2023-03-09T09:36:39;4.07;;;1.00;;
21860;SDS011;11095;48.066;8.540;2023-03-09T09:39:05;2.63;;;1.00;;
21860;SDS011;11095;48.066;8.540;2023-03-09T09:44:10;3.38;;;0.73;;
21860;SDS011;11095;48.066;8.540;2023-03-09T09:46:39;2.95;;;0.90;;
21860;SDS011;11095;48.066;8.540;2023-03-09T09:49:06;3.95;;;0.93;;
21860;SDS011;11095;48.066;8.540;2023-03-09T09:56:50;3.92;;;0.80;;
21860;SDS011;11095;48.066;8.540;2023-03-09T10:00:04;4.07;;;0.90;;
21860;SDS011;11095;48.066;8.540;2023-03-09T10:07:44;2.80;;;0.80;;
21860;SDS011;11095;48.066;8.540;2023-03-09T10:10:16;3.92;;;1.00;;
21860;SDS011;11095;48.066;8.540;2023-03-09T10:12:45;4.15;;;1.20;;
21860;SDS011;11095;48.066;8.540;2023-03-09T10:17:41;3.92;;;1.15;;
21860;SDS011;11095;48.066;8.540;2023-03-09T10:22:57;4.15;;;1.10;;
21860;SDS011;11095;48.066;8.540;2023-03-09T10:25:23;3.65;;;1.00;;
21860;SDS011;11095;48.066;8.540;2023-03-09T10:28:14;5.28;;;1.08;;
21860;SDS011;11095;48.066;8.540;2023-03-09T10:33:19;2.92;;;1.20;;
21860;SDS011;11095;48.066;8.540;2023-03-09T10:35:55;5.30;;;1.05;;
21860;SDS011;11095;48.066;8.540;2023-03-09T10:38:31;3.95;;;1.00;;
21860;SDS011;11095;48.066;8.540;2023-03-09T10:40:58;3.83;;;1.23;;
21860;SDS011;11095;48.066;8.540;2023-03-09T10:43:28;4.82;;;1.20;;
21860;SDS011;11095;48.066;8.540;2023-03-09T10:46:18;3.45;;;1.00;;
21860;SDS011;11095;48.066;8.540;2023-03-09T10:48:46;4.70;;;1.10;;
21860;SDS011;11095;48.066;8.540;2023-03-09T10:51:29;5.78;;;1.05;;
21860;SDS011;11095;48.066;8.540;2023-03-09T10:56:45;4.90;;;1.00;;
21860;SDS011;11095;48.066;8.540;2023-03-09T10:59:13;4.70;;;1.00;;
21860;SDS011;11095;48.066;8.540;2023-03-09T11:01:44;3.20;;;0.93;;
21860;SDS011;11095;48.066;8.540;2023-03-09T11:06:49;3.83;;;0.90;;
21860;SDS011;11095;48.066;8.540;2023-03-09T11:09:20;2.88;;;0.95;;
21860;SDS011;11095;48.066;8.540;2023-03-09T11:11:51;4.25;;;0.90;;
21860;SDS011;11095;48.066;8.540;2023-03-09T11:14:21;4.10;;;1.10;;
21860;SDS011;11095;48.066;8.540;2023-03-09T11:16:50;4.72;;;1.10;;
21860;SDS011;11095;48.066;8.540;2023-03-09T11:19:21;5.85;;;1.10;;
21860;SDS011;11095;48.066;8.540;2023-03-09T11:21:51;2.90;;;0.85;;
21860;SDS011;11095;48.066;8.540;2023-03-09T11:24:26;4.22;;;1.00;;
21860;SDS011;11095;48.066;8.540;2023-03-09T11:27:25;2.75;;;0.88;;
21860;SDS011;11095;48.066;8.540;2023-03-09T11:30:10;4.28;;;0.90;;
21860;SDS011;11095;48.066;8.540;2023-03-09T11:32:38;3.13;;;1.00;;
21860;SDS011;11095;48.066;8.540;2023-03-09T11:35:05;2.60;;;1.02;;
21860;SDS011;11095;48.066;8.540;2023-03-09T11:37:36;2.70;;;1.00;;
21860;SDS011;11095;48.066;8.540;2023-03-09T11:40:16;3.90;;;0.80;;
21860;SDS011;11095;48.066;8.540;2023-03-09T11:42:45;4.57;;;1.00;;
21860;SDS011;11095;48.066;8.540;2023-03-09T11:45:25;3.60;;;0.90;;
21860;SDS011;11095;48.066;8.540;2023-03-09T11:47:58;2.78;;;0.68;;
21860;SDS011;11095;48.066;8.540;2023-03-09T11:50:42;3.70;;;1.08;;
21860;SDS011;11095;48.066;8.540;2023-03-09T11:53:20;3.05;;;0.70;;
21860;SDS011;11095;48.066;8.540;2023-03-09T11:55:53;3.73;;;1.00;;
21860;SDS011;11095;48.066;8.540;2023-03-09T11:58:27;3.75;;;1.40;;
21860;SDS011;11095;48.066;8.540;2023-03-09T12:01:14;3.17;;;1.00;;
21860;SDS011;11095;48.066;8.540;2023-03-09T12:03:56;2.67;;;0.60;;
21860;SDS011;11095;48.066;8.540;2023-03-09T12:06:27;3.67;;;0.95;;
21860;SDS011;11095;48.066;8.540;2023-03-09T12:08:57;3.33;;;0.80;;
21860;SDS011;11095;48.066;8.540;2023-03-09T12:11:39;2.63;;;0.70;;
21860;SDS011;11095;48.066;8.540;2023-03-09T12:16:50;2.55;;;0.50;;
21860;SDS011;11095;48.066;8.540;2023-03-09T12:21:47;1.58;;;0.60;;
21860;SDS011;11095;48.066;8.540;2023-03-09T12:24:27;2.58;;;0.70;;
21860;SDS011;11095;48.066;8.540;2023-03-09T12:27:00;1.80;;;0.63;;
21860;SDS011;11095;48.066;8.540;2023-03-09T12:29:31;0.88;;;0.50;;
21860;SDS011;11095;48.066;8.540;2023-03-09T12:34:47;1.90;;;0.57;;
21860;SDS011;11095;48.066;8.540;2023-03-09T12:42:42;1.70;;;0.50;;
21860;SDS011;11095;48.066;8.540;2023-03-09T12:50:26;1.38;;;0.30;;
21860;SDS011;11095;48.066;8.540;2023-03-09T12:53:20;1.35;;;0.50;;
21860;SDS011;11095;48.066;8.540;2023-03-09T12:55:51;1.67;;;0.65;;
21860;SDS011;11095;48.066;8.540;2023-03-09T13:00:54;1.65;;;0.50;;
21860;SDS011;11095;48.066;8.540;2023-03-09T13:03:23;3.90;;;0.73;;
21860;SDS011;11095;48.066;8.540;2023-03-09T13:05:57;2.25;;;0.60;;
21860;SDS011;11095;48.066;8.540;2023-03-09T13:13:53;4.65;;;0.75;;
21860;SDS011;11095;48.066;8.540;2023-03-09T13:27:04;4.20;;;0.85;;
21860;SDS011;11095;48.066;8.540;2023-03-09T13:29:34;3.28;;;0.95;;
21860;SDS011;11095;48.066;8.540;2023-03-09T13:32:03;2.50;;;0.97;;
21860;SDS011;11095;48.066;8.540;2023-03-09T13:34:34;2.70;;;0.80;;
21860;SDS011;11095;48.066;8.540;2023-03-09T13:37:05;1.65;;;0.68;;
21860;SDS011;11095;48.066;8.540;2023-03-09T13:39:38;2.70;;;0.90;;
21860;SDS011;11095;48.066;8.540;2023-03-09T13:42:04;2.47;;;0.80;;
21860;SDS011;11095;48.066;8.540;2023-03-09T13:44:31;3.13;;;0.90;;
21860;SDS011;11095;48.066;8.540;2023-03-09T13:46:58;4.88;;;0.82;;
21860;SDS011;11095;48.066;8.540;2023-03-09T13:49:28;4.50;;;1.20;;
21860;SDS011;11095;48.066;8.540;2023-03-09T13:51:59;5.45;;;1.10;;
21860;SDS011;11095;48.066;8.540;2023-03-09T13:54:30;2.47;;;0.68;;
21860;SDS011;11095;48.066;8.540;2023-03-09T13:57:01;4.60;;;1.10;;
21860;SDS011;11095;48.066;8.540;2023-03-09T13:59:43;4.28;;;1.60;;
21860;SDS011;11095;48.066;8.540;2023-03-09T14:02:10;3.00;;;1.13;;
21860;SDS011;11095;48.066;8.540;2023-03-09T14:04:47;3.92;;;1.20;;
21860;SDS011;11095;48.066;8.540;2023-03-09T14:07:48;2.73;;;1.00;;
21860;SDS011;11095;48.066;8.540;2023-03-09T14:10:19;3.58;;;0.77;;
21860;SDS011;11095;48.066;8.540;2023-03-09T14:12:50;3.95;;;1.05;;
21860;SDS011;11095;48.066;8.540;2023-03-09T14:15:21;3.88;;;1.20;;
21860;SDS011;11095;48.066;8.540;2023-03-09T14:17:48;6.68;;;1.00;;
21860;SDS011;11095;48.066;8.540;2023-03-09T14:20:21;3.00;;;0.95;;
21860;SDS011;11095;48.066;8.540;2023-03-09T14:22:49;2.53;;;1.10;;
21860;SDS011;11095;48.066;8.540;2023-03-09T14:27:50;4.72;;;1.17;;
21860;SDS011;11095;48.066;8.540;2023-03-09T14:33:01;2.95;;;1.08;;
21860;SDS011;11095;48.066;8.540;2023-03-09T14:35:37;3.47;;;1.20;;
21860;SDS011;11095;48.066;8.540;2023-03-09T14:38:18;3.55;;;1.23;;
21860;SDS011;11095;48.066;8.540;2023-03-09T14:40:46;5.80;;;1.25;;
21860;SDS011;11095;48.066;8.540;2023-03-09T14:45:48;5.05;;;1.48;;
21860;SDS011;11095;48.066;8.540;2023-03-09T14:48:14;4.20;;;1.30;;
21860;SDS011;11095;48.066;8.540;2023-03-09T14:50:40;2.78;;;1.00;;
21860;SDS011;11095;48.066;8.540;2023-03-09T14:53:05;3.65;;;1.48;;
21860;SDS011;11095;48.066;8.540;2023-03-09T14:55:40;4.10;;;1.50;;
21860;SDS011;11095;48.066;8.540;2023-03-09T14:58:09;6.50;;;1.35;;
21860;SDS011;11095;48.066;8.540;2023-03-09T15:00:35;5.55;;;1.60;;
21860;SDS011;11095;48.066;8.540;2023-03-09T15:03:01;2.85;;;1.17;;
21860;SDS011;11095;48.066;8.540;2023-03-09T15:05:28;4.95;;;1.30;;
21860;SDS011;11095;48.066;8.540;2023-03-09T15:07:54;3.97;;;1.38;;
21860;SDS011;11095;48.066;8.540;2023-03-09T15:10:20;4.18;;;1.35;;
21860;SDS011;11095;48.066;8.540;2023-03-09T15:12:46;3.90;;;1.27;;
21860;SDS011;11095;48.066;8.540;2023-03-09T15:15:17;2.63;;;1.05;;
21860;SDS011;11095;48.066;8.540;2023-03-09T15:17:48;4.90;;;1.20;;
21860;SDS011;11095;48.066;8.540;2023-03-09T15:20:15;3.28;;;1.20;;
21860;SDS011;11095;48.066;8.540;2023-03-09T15:22:43;3.22;;;1.08;;
21860;SDS011;11095;48.066;8.540;2023-03-09T15:25:13;4.18;;;1.20;;
21860;SDS011;11095;48.066;8.540;2023-03-09T15:27:40;3.10;;;1.10;;
21860;SDS011;11095;48.066;8.540;2023-03-09T15:30:09;2.97;;;1.08;;
21860;SDS011;11095;48.066;8.540;2023-03-09T15:32:36;3.20;;;1.13;;
21860;SDS011;11095;48.066;8.540;2023-03-09T15:35:02;3.92;;;1.30;;
21860;SDS011;11095;48.066;8.540;2023-03-09T15:37:28;3.97;;;1.02;;
21860;SDS011;11095;48.066;8.540;2023-03-09T15:39:54;2.50;;;0.95;;
21860;SDS011;11095;48.066;8.540;2023-03-09T15:42:19;4.78;;;1.13;;
21860;SDS011;11095;48.066;8.540;2023-03-09T15:44:45;3.95;;;0.93;;
21860;SDS011;11095;48.066;8.540;2023-03-09T15:47:11;3.60;;;1.42;;
21860;SDS011;11095;48.066;8.540;2023-03-09T15:49:36;3.78;;;1.23;;
21860;SDS011;11095;48.066;8.540;2023-03-09T15:52:06;4.13;;;1.20;;
21860;SDS011;11095;48.066;8.540;2023-03-09T15:54:32;5.13;;;1.20;;
21860;SDS011;11095;48.066;8.540;2023-03-09T15:56:57;3.78;;;1.33;;
21860;SDS011;11095;48.066;8.540;2023-03-09T15:59:23;4.25;;;1.40;;
21860;SDS011;11095;48.066;8.540;2023-03-09T16:01:49;2.50;;;1.00;;
21860;SDS011;11095;48.066;8.540;2023-03-09T16:04:17;3.50;;;1.20;;
21860;SDS011;11095;48.066;8.540;2023-03-09T16:06:44;2.30;;;0.90;;
21860;SDS011;11095;48.066;8.540;2023-03-09T16:09:10;4.32;;;1.20;;
21860;SDS011;11095;48.066;8.540;2023-03-09T16:11:36;4.30;;;1.25;;
21860;SDS011;11095;48.066;8.540;2023-03-09T16:14:02;3.97;;;1.10;;
21860;SDS011;11095;48.066;8.540;2023-03-09T16:16:29;4.93;;;1.48;;
21860;SDS011;11095;48.066;8.540;2023-03-09T16:18:55;5.22;;;1.27;;
21860;SDS011;11095;48.066;8.540;2023-03-09T16:21:21;3.15;;;1.05;;
21860;SDS011;11095;48.066;8.540;2023-03-09T16:23:46;5.30;;;1.05;;